createdAt,value
2023-03-19T00:02:21.375Z,99995.38
2023-03-19T00:07:22.776Z,100000.34
2023-03-19T00:12:24.144Z,99998.69
2023-03-19T00:17:25.661Z,99996.41
2023-03-19T00:22:27.021Z,99998.47
2023-03-19T00:27:28.415Z,100003.63
2023-03-19T00:32:30.041Z,99998.97
2023-03-19T00:37:31.613Z,100012.13
2023-03-19T00:42:33.162Z,100002.16
2023-03-19T00:47:34.608Z,100009.25
2023-03-19T00:52:35.943Z,100007.00
2023-03-19T00:57:37.288Z,100015.31
2023-03-19T01:02:38.630Z,100007.84
2023-03-19T01:07:40.293Z,100004.13
2023-03-19T01:12:41.786Z,100006.78
2023-03-19T01:17:43.430Z,99999.72
2023-03-19T01:22:45.949Z,100013.91
2023-03-19T01:27:47.456Z,100013.88
2023-03-19T01:32:49.198Z,100019.56
2023-03-19T01:37:51.003Z,100011.28
2023-03-19T01:42:55.097Z,100006.72
2023-03-19T01:47:56.522Z,100011.69
2023-03-19T01:52:57.934Z,100011.88
2023-03-19T01:57:59.343Z,100004.59
2023-03-19T02:03:02.114Z,100012.03
2023-03-19T02:08:07.297Z,100006.97
2023-03-19T02:13:08.743Z,100014.00
2023-03-19T02:18:10.613Z,100028.06
2023-03-19T02:23:30.271Z,100017.28
2023-03-19T02:28:33.467Z,100017.69
2023-03-19T02:33:35.303Z,100016.91
2023-03-19T02:38:38.909Z,100014.47
2023-03-19T02:43:41.907Z,100001.84
2023-03-19T02:48:43.807Z,100008.91
2023-03-19T02:53:46.020Z,100030.03
2023-03-19T02:58:47.680Z,100024.03
2023-03-19T03:03:49.670Z,100021.16
2023-03-19T03:08:52.067Z,100022.41
2023-03-19T03:13:53.407Z,100019.63
2023-03-19T03:18:54.744Z,100024.53
2023-03-19T03:23:56.318Z,100021.97
2023-03-19T03:28:57.690Z,100024.19
2023-03-19T03:33:59.070Z,100020.78
2023-03-19T03:39:00.431Z,100023.13
2023-03-19T03:44:01.808Z,100026.78
2023-03-19T03:49:03.273Z,100030.63
2023-03-19T03:54:04.653Z,100029.19
2023-03-19T03:59:06.108Z,100033.22
2023-03-19T04:04:07.551Z,100040.19
2023-03-19T04:09:09.089Z,100031.84
2023-03-19T04:14:10.605Z,100044.66
2023-03-19T04:19:11.945Z,100051.44
2023-03-19T04:24:14.166Z,100051.16
2023-03-19T04:29:16.592Z,100067.03
2023-03-19T04:34:18.008Z,100069.38
2023-03-19T04:39:19.589Z,100076.03
2023-03-19T04:44:21.781Z,100078.06
2023-03-19T04:49:24.499Z,100079.28
2023-03-19T04:54:25.995Z,100083.53
2023-03-19T04:59:27.441Z,100081.50
2023-03-19T05:04:28.880Z,100083.06
2023-03-19T05:09:30.849Z,100085.66
2023-03-19T05:14:32.502Z,100082.25
2023-03-19T05:19:34.032Z,100094.69
2023-03-19T05:24:36.133Z,100094.03
2023-03-19T05:29:40.734Z,100099.66
2023-03-19T05:34:42.331Z,100098.94
2023-03-19T05:39:43.810Z,100110.16
2023-03-19T05:44:45.262Z,100120.06
2023-03-19T05:49:47.253Z,100123.59
2023-03-19T05:54:50.564Z,100120.06
2023-03-19T05:59:52.569Z,100121.19
2023-03-19T06:04:54.209Z,100129.56
2023-03-19T06:09:55.858Z,100137.63
2023-03-19T06:14:57.293Z,100138.66
2023-03-19T06:20:01.218Z,100134.50
2023-03-19T06:25:02.667Z,100142.06
2023-03-19T06:30:05.108Z,100142.06
2023-03-19T06:35:06.748Z,100149.47
2023-03-19T06:40:08.699Z,100155.50
2023-03-19T06:45:10.563Z,100163.56
2023-03-19T06:50:12.336Z,100166.84
2023-03-19T06:55:14.115Z,100172.06
2023-03-19T07:00:16.640Z,100169.75
2023-03-19T07:05:18.099Z,100169.63
2023-03-19T07:10:21.972Z,100169.75
2023-03-19T07:15:23.364Z,100182.59
2023-03-19T07:20:24.850Z,100185.19
2023-03-19T07:25:26.515Z,100177.19
2023-03-19T07:30:27.985Z,100182.09
2023-03-19T07:35:29.459Z,100187.69
2023-03-19T07:40:31.428Z,100190.22
2023-03-19T07:45:32.972Z,100187.81
2023-03-19T07:50:35.270Z,100196.00
2023-03-19T07:55:38.458Z,100197.69
2023-03-19T08:00:39.920Z,100186.69
2023-03-19T08:05:41.893Z,100192.97
2023-03-19T08:10:43.873Z,100205.03
2023-03-19T08:15:45.427Z,100203.19
2023-03-19T08:20:46.889Z,100212.56
2023-03-19T08:25:51.631Z,100209.28
2023-03-19T08:30:53.135Z,100208.47
2023-03-19T08:36:03.571Z,100206.19
2023-03-19T08:41:06.233Z,100209.13
2023-03-19T08:46:07.679Z,100212.22
2023-03-19T08:51:09.918Z,100212.25
2023-03-19T08:56:11.307Z,100209.13
2023-03-19T09:01:14.475Z,100223.25
2023-03-19T09:06:15.983Z,100224.91
2023-03-19T09:11:18.061Z,100223.00
2023-03-19T09:16:19.769Z,100221.50
2023-03-19T09:21:21.506Z,100227.50
2023-03-19T09:26:22.930Z,100231.22
2023-03-19T09:31:24.760Z,100226.16
2023-03-19T09:36:26.584Z,100222.13
2023-03-19T09:41:31.336Z,100215.00
2023-03-19T09:46:43.221Z,100219.00
2023-03-19T09:51:50.248Z,100224.72
2023-03-19T09:56:52.337Z,100229.06
2023-03-19T10:02:00.959Z,100227.34
2023-03-19T10:07:12.875Z,100212.81
2023-03-19T10:12:26.159Z,100208.97
2023-03-19T10:17:33.177Z,100223.75
2023-03-19T10:22:44.019Z,100225.13
2023-03-19T10:27:47.235Z,100224.91
2023-03-19T10:32:55.086Z,100216.63
2023-03-19T10:37:56.521Z,100214.63
2023-03-19T10:43:17.697Z,100217.56
2023-03-19T10:48:19.678Z,100219.03
2023-03-19T10:53:39.954Z,100231.22
2023-03-19T10:58:41.791Z,100223.94
2023-03-19T11:03:57.477Z,100213.91
2023-03-19T11:09:08.135Z,100235.41
2023-03-19T11:14:18.260Z,100227.78
2023-03-19T11:19:29.476Z,100227.59
2023-03-19T11:24:37.609Z,100227.13
2023-03-19T11:29:43.908Z,100238.66
2023-03-19T11:34:49.195Z,100228.25
2023-03-19T11:39:54.044Z,100225.97
2023-03-19T11:45:22.965Z,100226.06
2023-03-19T11:51:08.880Z,100225.34
2023-03-19T11:56:35.096Z,100215.19
2023-03-19T12:01:54.768Z,100213.00
2023-03-19T12:07:21.155Z,100211.53
2023-03-19T12:12:29.983Z,100210.53
2023-03-19T12:17:38.948Z,100205.59
2023-03-19T12:22:45.331Z,100212.19
2023-03-19T12:28:19.038Z,100203.84
2023-03-19T12:33:38.707Z,100206.88
2023-03-19T12:38:48.191Z,100206.63
2023-03-19T12:43:59.358Z,100210.97
2023-03-19T12:49:24.308Z,100201.97
2023-03-19T12:54:31.427Z,100204.78
2023-03-19T12:59:36.476Z,100190.69
2023-03-19T13:04:53.329Z,100202.06
2023-03-19T13:10:09.217Z,100206.38
2023-03-19T13:15:27.683Z,100204.69
2023-03-19T13:20:49.014Z,100217.56
2023-03-19T13:25:52.856Z,100230.03
2023-03-19T13:31:06.159Z,100227.34
2023-03-19T13:36:14.573Z,100237.81
2023-03-19T13:41:34.868Z,100243.50
2023-03-19T13:46:38.452Z,100230.81
2023-03-19T13:51:39.928Z,100232.44
2023-03-19T13:57:12.830Z,100222.00
2023-03-19T14:02:23.880Z,100227.97
2023-03-19T14:07:28.816Z,100227.16
2023-03-19T14:12:34.183Z,100225.75
2023-03-19T14:17:53.880Z,100219.09
2023-03-19T14:23:23.311Z,100211.41
2023-03-19T14:28:38.826Z,100213.06
2023-03-19T14:33:55.824Z,100208.09
2023-03-19T14:39:00.565Z,100203.66
2023-03-19T14:44:35.479Z,100199.81
2023-03-19T14:50:15.949Z,100204.84
2023-03-19T14:55:17.756Z,100195.88
2023-03-19T15:00:20.465Z,100195.34
2023-03-19T15:05:26.235Z,100193.78
2023-03-19T15:10:30.766Z,100186.66
2023-03-19T15:15:39.528Z,100180.19
2023-03-19T15:20:47.360Z,100192.19
2023-03-19T15:25:57.575Z,100184.63
2023-03-19T15:31:14.430Z,100199.34
2023-03-19T15:36:33.246Z,100193.31
2023-03-19T15:41:41.210Z,100189.75
2023-03-19T15:46:44.509Z,100185.84
2023-03-19T15:51:51.637Z,100188.56
2023-03-19T15:56:53.641Z,100191.84
2023-03-19T16:01:59.528Z,100188.31
2023-03-19T16:07:01.364Z,100196.63
2023-03-19T16:12:02.767Z,100191.66
2023-03-19T16:17:13.034Z,100196.16
2023-03-19T16:22:17.574Z,100198.84
2023-03-19T16:27:22.485Z,100199.97
2023-03-19T16:32:26.081Z,100198.16
2023-03-19T16:37:33.796Z,100204.44
2023-03-19T16:42:35.239Z,100224.03
2023-03-19T16:47:36.764Z,100228.91
2023-03-19T16:52:39.622Z,100230.66
2023-03-19T16:57:41.318Z,100234.09
2023-03-19T17:02:42.659Z,100241.13
2023-03-19T17:07:44.376Z,100243.44
2023-03-19T17:12:48.892Z,100254.75
2023-03-19T17:17:51.009Z,100257.31
2023-03-19T17:22:52.373Z,100266.25
2023-03-19T17:27:53.956Z,100273.09
2023-03-19T17:32:57.045Z,100276.22
2023-03-19T17:37:58.392Z,100280.69
2023-03-19T17:42:59.908Z,100281.97
2023-03-19T17:48:01.311Z,100288.75
2023-03-19T17:53:02.709Z,100294.41
2023-03-19T17:58:04.158Z,100299.03
2023-03-19T18:03:05.680Z,100301.81
2023-03-19T18:08:07.067Z,100311.16
2023-03-19T18:13:09.384Z,100319.94
2023-03-19T18:18:20.964Z,100324.31
2023-03-19T18:23:24.005Z,100324.75
2023-03-19T18:28:25.526Z,100325.16
2023-03-19T18:33:30.151Z,100325.38
2023-03-19T18:38:31.543Z,100331.59
2023-03-19T18:43:32.874Z,100332.84
2023-03-19T18:48:34.229Z,100336.97
2023-03-19T18:53:35.694Z,100337.78
2023-03-19T18:58:38.730Z,100342.97
2023-03-19T19:03:40.218Z,100348.72
2023-03-19T19:08:41.550Z,100345.09
2023-03-19T19:13:55.663Z,100358.59
2023-03-19T19:18:58.163Z,100356.25
2023-03-19T19:23:59.548Z,100370.75
2023-03-19T19:29:01.239Z,100378.66
2023-03-19T19:34:02.801Z,100380.22
2023-03-19T19:39:04.279Z,100387.91
2023-03-19T19:44:06.666Z,100400.59
2023-03-19T19:49:12.742Z,100405.34
2023-03-19T19:54:14.128Z,100407.84
2023-03-19T19:59:15.826Z,100409.31
2023-03-19T20:04:17.328Z,100414.13
2023-03-19T20:09:18.700Z,100421.22
2023-03-19T20:14:20.337Z,100427.63
2023-03-19T20:19:21.797Z,100435.19
2023-03-19T20:24:23.196Z,100432.72
2023-03-19T20:29:24.542Z,100432.34
2023-03-19T20:34:38.780Z,100450.81
2023-03-19T20:39:40.923Z,100446.53
2023-03-19T20:44:43.388Z,100447.25
2023-03-19T20:49:45.599Z,100455.25
2023-03-19T20:54:48.023Z,100452.81
2023-03-19T20:59:49.664Z,100459.03
2023-03-19T21:04:51.615Z,100472.75
2023-03-19T21:09:53.007Z,100485.94
2023-03-19T21:14:54.706Z,100488.16
2023-03-19T21:19:56.636Z,100491.88
2023-03-19T21:25:07.796Z,100494.28
2023-03-19T21:30:14.697Z,100490.16
2023-03-19T21:35:24.261Z,100490.16
2023-03-19T21:40:29.821Z,100493.97
2023-03-19T21:45:33.911Z,100498.13
2023-03-19T21:50:35.656Z,100496.91
2023-03-19T21:55:37.232Z,100497.53
2023-03-19T22:00:39.122Z,100499.06
2023-03-19T22:05:40.644Z,100495.75
2023-03-19T22:10:42.752Z,100492.88
2023-03-19T22:15:44.102Z,100494.97
2023-03-19T22:20:46.928Z,100493.56
2023-03-19T22:25:50.775Z,100496.91
2023-03-19T22:30:52.442Z,100495.44
2023-03-19T22:35:53.931Z,100496.09
2023-03-19T22:40:56.262Z,100492.16
2023-03-19T22:46:02.280Z,100484.88
2023-03-19T22:51:04.742Z,100486.94
2023-03-19T22:56:06.329Z,100489.41
2023-03-19T23:01:28.941Z,100484.31
2023-03-19T23:06:31.132Z,100482.06
2023-03-19T23:11:32.523Z,100481.53
2023-03-19T23:16:34.205Z,100471.91
2023-03-19T23:21:35.542Z,100485.91
2023-03-19T23:26:37.339Z,100486.00
2023-03-19T23:31:38.686Z,100486.88
2023-03-19T23:36:41.810Z,100489.75
2023-03-19T23:41:53.524Z,100486.41
2023-03-19T23:46:57.840Z,100485.66
2023-03-19T23:52:00.000Z,100486.31
2023-03-19T23:57:06.529Z,100498.63
